createdAt,value
2022-08-09T00:00:06.806Z,49.99
2022-08-09T00:01:10.334Z,49.58
2022-08-09T00:02:06.801Z,49.79
2022-08-09T00:03:18.863Z,49.99
2022-08-09T00:04:24.983Z,49.99
2022-08-09T00:06:15.443Z,49.99
2022-08-09T00:06:18.097Z,49.99
2022-08-09T00:07:10.487Z,50.99
2022-08-09T00:08:10.017Z,50.29
2022-08-09T00:09:05.674Z,50.19
2022-08-09T00:10:05.658Z,50.09
2022-08-09T00:11:24.656Z,49.69
2022-08-09T00:12:06.588Z,48.08
2022-08-09T00:13:05.613Z,47.99
2022-08-09T00:14:06.600Z,47.99
2022-08-09T00:15:06.571Z,48.99
2022-08-09T00:16:05.512Z,49.16
2022-08-09T00:17:05.539Z,49.37
2022-08-09T00:18:11.478Z,47.66
2022-08-09T00:19:09.369Z,47.76
2022-08-09T00:20:05.486Z,47.06
2022-08-09T00:21:08.401Z,47.36
2022-08-09T00:22:05.452Z,47.76
2022-08-09T00:23:08.477Z,47.86
2022-08-09T00:24:06.410Z,48.07
2022-08-09T00:25:08.527Z,46.76
2022-08-09T00:26:05.515Z,47.56
2022-08-09T00:27:05.453Z,45.43
2022-08-09T00:28:05.370Z,48.44
2022-08-09T00:29:12.501Z,46.54
2022-08-09T00:30:16.220Z,45.34
2022-08-09T00:31:09.255Z,45.62
2022-08-09T00:32:06.310Z,45.92
2022-08-09T00:33:05.298Z,44.71
2022-08-09T00:34:05.250Z,44.62
2022-08-09T00:35:05.261Z,45.51
2022-08-09T00:36:05.233Z,44.71
2022-08-09T00:37:05.312Z,44.51
2022-08-09T00:38:05.254Z,44.82
2022-08-09T00:39:05.253Z,45.21
2022-08-09T00:40:13.054Z,45.72
2022-08-09T00:41:08.311Z,45.92
2022-08-09T00:44:09.986Z,46.84
2022-08-09T00:44:14.659Z,47.24
2022-08-09T00:44:15.388Z,45.72
2022-08-09T00:45:16.054Z,46.34
2022-08-09T00:46:06.120Z,46.64
2022-08-09T00:47:05.957Z,48.16
2022-08-09T00:48:05.584Z,47.46
2022-08-09T00:49:05.081Z,47.36
2022-08-09T00:50:05.160Z,47.36
2022-08-09T00:51:10.374Z,47.36
2022-08-09T00:52:17.751Z,47.49
2022-08-09T00:53:10.181Z,47.69
2022-08-09T00:54:04.996Z,47.99
2022-08-09T00:55:05.052Z,48.49
2022-08-09T00:56:09.774Z,48.58
2022-08-09T00:57:10.408Z,48.89
2022-08-09T00:58:06.010Z,49.08
2022-08-09T00:59:04.921Z,50.01
2022-08-09T01:00:05.424Z,50.42
2022-08-09T01:01:05.976Z,50.31
2022-08-09T01:02:04.899Z,49.71
2022-08-09T01:03:04.892Z,50.42
2022-08-09T01:04:04.904Z,50.71
2022-08-09T01:05:04.892Z,50.74
2022-08-09T01:06:18.285Z,49.84
2022-08-09T01:07:05.924Z,49.74
2022-08-09T01:08:05.825Z,50.04
2022-08-09T01:09:06.170Z,49.63
2022-08-09T01:10:04.771Z,50.04
2022-08-09T01:11:04.831Z,50.34
2022-08-09T01:12:04.764Z,50.54
2022-08-09T01:13:04.842Z,50.74
2022-08-09T01:14:04.807Z,50.84
2022-08-09T01:15:05.883Z,51.26
2022-08-09T01:16:05.693Z,50.26
2022-08-09T01:17:04.784Z,49.54
2022-08-09T01:18:04.866Z,49.33
2022-08-09T01:19:04.960Z,48.83
2022-08-09T01:20:04.653Z,48.73
2022-08-09T01:21:04.676Z,48.93
2022-08-09T01:22:04.624Z,49.04
2022-08-09T01:23:05.638Z,49.23
2022-08-09T01:24:05.733Z,49.74
2022-08-09T01:25:04.631Z,48.83
2022-08-09T01:26:04.623Z,49.13
2022-08-09T01:27:04.583Z,48.83
2022-08-09T01:28:04.562Z,49.13
2022-08-09T01:29:04.528Z,48.73
2022-08-09T01:30:04.642Z,48.63
2022-08-09T01:31:06.105Z,48.33
2022-08-09T01:32:30.181Z,48.73
2022-08-09T01:33:05.528Z,48.13
2022-08-09T01:34:04.466Z,48.43
2022-08-09T01:35:07.150Z,48.03
2022-08-09T01:36:05.548Z,47.73
2022-08-09T01:37:04.434Z,47.93
2022-08-09T01:38:09.381Z,47.93
2022-08-09T01:39:05.463Z,48.23
2022-08-09T01:40:04.420Z,48.43
2022-08-09T01:41:05.230Z,48.53
2022-08-09T01:42:11.166Z,49.54
2022-08-09T01:43:05.410Z,48.33
2022-08-09T01:44:04.369Z,48.73
2022-08-09T01:45:05.579Z,47.75
2022-08-09T01:46:04.351Z,48.23
2022-08-09T01:47:04.417Z,49.93
2022-08-09T01:48:06.246Z,49.54
2022-08-09T01:49:10.324Z,47.93
2022-08-09T01:50:06.493Z,47.43
2022-08-09T01:51:04.317Z,47.23
2022-08-09T01:52:07.016Z,47.11
2022-08-09T01:53:19.772Z,46.81
2022-08-09T01:54:05.250Z,46.81
2022-08-09T01:55:04.312Z,47.11
2022-08-09T01:56:04.186Z,46.50
2022-08-09T01:57:04.339Z,46.81
2022-08-09T01:58:04.152Z,46.61
2022-08-09T01:59:04.150Z,46.91
2022-08-09T02:00:19.195Z,47.71
2022-08-09T02:01:05.149Z,46.30
2022-08-09T02:02:04.095Z,46.41
2022-08-09T02:03:04.178Z,46.08
2022-08-09T02:04:04.177Z,47.38
2022-08-09T02:05:05.473Z,46.68
2022-08-09T02:06:06.849Z,46.38
2022-08-09T02:07:04.054Z,46.58
2022-08-09T02:08:41.400Z,47.78
2022-08-09T02:09:05.093Z,47.19
2022-08-09T02:10:04.343Z,47.99
2022-08-09T02:11:03.967Z,47.91
2022-08-09T02:12:04.955Z,47.50
2022-08-09T02:13:03.936Z,47.61
2022-08-09T02:14:07.361Z,47.91
2022-08-09T02:15:06.342Z,47.41
2022-08-09T02:16:03.937Z,49.21
2022-08-09T02:17:29.625Z,47.31
2022-08-09T02:18:10.428Z,47.31
2022-08-09T02:19:04.868Z,47.41
2022-08-09T02:20:03.912Z,47.81
2022-08-09T02:21:03.869Z,47.61
2022-08-09T02:22:03.805Z,47.13
2022-08-09T02:23:03.827Z,47.13
2022-08-09T02:24:03.938Z,47.23
2022-08-09T02:25:03.756Z,47.73
2022-08-09T02:26:03.749Z,47.73
2022-08-09T02:27:03.775Z,48.23
2022-08-09T02:28:05.209Z,50.04
2022-08-09T02:29:03.801Z,48.66
2022-08-09T02:30:03.704Z,48.35
2022-08-09T02:31:03.738Z,48.05
2022-08-09T02:32:03.677Z,48.96
2022-08-09T02:33:03.667Z,48.96
2022-08-09T02:34:13.275Z,49.26
2022-08-09T02:35:17.347Z,47.85
2022-08-09T02:36:04.639Z,48.66
2022-08-09T02:37:03.749Z,50.54
2022-08-09T02:38:03.594Z,50.63
2022-08-09T02:39:03.649Z,49.43
2022-08-09T02:40:03.622Z,48.93
2022-08-09T02:41:04.556Z,48.83
2022-08-09T02:42:03.531Z,49.23
2022-08-09T02:43:03.514Z,50.34
2022-08-09T02:44:10.275Z,49.04
2022-08-09T02:45:04.553Z,48.75
2022-08-09T02:46:03.478Z,48.75
2022-08-09T02:47:04.195Z,48.75
2022-08-09T02:48:03.448Z,48.55
2022-08-09T02:49:03.445Z,48.35
2022-08-09T02:50:03.461Z,49.26
2022-08-09T02:51:03.458Z,48.96
2022-08-09T02:52:03.703Z,48.86
2022-08-09T02:53:03.747Z,49.46
2022-08-09T02:54:03.408Z,49.96
2022-08-09T02:55:03.409Z,49.96
2022-08-09T02:56:04.365Z,49.05
2022-08-09T02:57:13.959Z,49.76
2022-08-09T02:58:32.254Z,49.46
2022-08-09T02:59:04.332Z,49.76
2022-08-09T03:00:20.410Z,49.46
2022-08-09T03:01:06.122Z,48.55
2022-08-09T03:02:06.279Z,49.26
2022-08-09T03:03:03.313Z,49.16
2022-08-09T03:04:17.504Z,48.25
2022-08-09T03:05:04.235Z,48.75
2022-08-09T03:06:03.255Z,48.35
2022-08-09T03:07:12.245Z,48.38
2022-08-09T03:08:04.209Z,48.98
2022-08-09T03:09:03.197Z,48.78
2022-08-09T03:10:03.159Z,49.08
2022-08-09T03:11:03.143Z,49.28
2022-08-09T03:12:05.641Z,49.48
2022-08-09T03:13:08.617Z,49.68
2022-08-09T03:14:04.121Z,48.88
2022-08-09T03:15:03.141Z,49.98
2022-08-09T03:16:06.333Z,50.61
2022-08-09T03:17:05.861Z,50.81
2022-08-09T03:18:03.059Z,50.71
2022-08-09T03:19:04.065Z,51.04
2022-08-09T03:20:05.315Z,51.94
2022-08-09T03:21:04.020Z,52.24
2022-08-09T03:22:03.328Z,52.06
2022-08-09T03:23:15.124Z,52.17
2022-08-09T03:24:05.153Z,51.97
2022-08-09T03:25:06.639Z,52.37
2022-08-09T03:26:05.081Z,52.47
2022-08-09T03:27:02.919Z,52.97
2022-08-09T03:28:02.942Z,53.37
2022-08-09T03:29:02.916Z,53.40
2022-08-09T03:30:04.479Z,53.20
2022-08-09T03:31:09.928Z,53.50
2022-08-09T03:32:03.910Z,53.80
2022-08-09T03:33:05.627Z,53.80
2022-08-09T03:34:03.845Z,53.60
2022-08-09T03:35:02.844Z,53.60
2022-08-09T03:36:13.143Z,53.50
2022-08-09T03:37:54.869Z,53.60
2022-08-09T03:38:03.810Z,54.00
2022-08-09T03:39:02.876Z,54.10
2022-08-09T03:40:02.811Z,54.23
2022-08-09T03:41:02.921Z,54.23
2022-08-09T03:42:06.216Z,54.43
2022-08-09T03:43:02.708Z,54.93
2022-08-09T03:44:08.449Z,55.13
2022-08-09T03:45:03.681Z,55.33
2022-08-09T03:46:04.164Z,55.54
2022-08-09T03:47:03.740Z,54.63
2022-08-09T03:48:02.681Z,53.83
2022-08-09T03:49:04.260Z,53.52
2022-08-09T03:50:03.613Z,53.63
2022-08-09T03:51:02.664Z,53.52
2022-08-09T03:52:03.683Z,54.33
2022-08-09T03:53:03.220Z,54.03
2022-08-09T03:54:02.629Z,53.42
2022-08-09T03:55:02.542Z,53.92
2022-08-09T03:56:03.521Z,54.13
2022-08-09T03:57:04.205Z,54.13
2022-08-09T03:58:10.031Z,54.13
2022-08-09T03:59:03.522Z,54.13
2022-08-09T04:00:02.508Z,55.23
2022-08-09T04:01:02.522Z,55.54
2022-08-09T04:02:02.448Z,55.33
2022-08-09T04:03:02.412Z,55.66
2022-08-09T04:04:03.899Z,55.76
2022-08-09T04:05:06.686Z,55.96
2022-08-09T04:06:04.408Z,56.07
2022-08-09T04:07:02.444Z,55.87
2022-08-09T04:08:02.350Z,55.87
2022-08-09T04:09:02.372Z,55.96
2022-08-09T04:10:02.376Z,55.96
2022-08-09T04:11:02.356Z,54.05
2022-08-09T04:12:02.588Z,53.52
2022-08-09T04:13:04.014Z,53.42
2022-08-09T04:14:53.557Z,52.80
2022-08-09T04:15:11.419Z,52.69
2022-08-09T04:16:20.659Z,52.89
2022-08-09T04:17:03.241Z,52.09
2022-08-09T04:18:02.232Z,53.67
2022-08-09T04:19:02.222Z,54.91
2022-08-09T04:20:02.570Z,54.20
2022-08-09T04:21:02.307Z,54.40
2022-08-09T04:22:02.217Z,52.80
2022-08-09T04:23:02.182Z,52.92
2022-08-09T04:24:02.133Z,53.92
2022-08-09T04:25:03.018Z,53.72
2022-08-09T04:26:02.092Z,53.42
2022-08-09T04:27:02.114Z,53.92
2022-08-09T04:28:03.462Z,53.63
2022-08-09T04:29:09.672Z,53.22
2022-08-09T04:30:03.033Z,53.12
2022-08-09T04:31:07.871Z,53.12
2022-08-09T04:32:03.107Z,54.40
2022-08-09T04:33:01.984Z,53.72
2022-08-09T04:34:02.058Z,53.92
2022-08-09T04:35:01.973Z,53.92
2022-08-09T04:36:01.983Z,53.63
2022-08-09T04:37:01.938Z,53.42
2022-08-09T04:38:03.766Z,53.22
2022-08-09T04:39:01.927Z,54.80
2022-08-09T04:40:02.181Z,54.28
2022-08-09T04:41:01.919Z,53.34
2022-08-09T04:42:02.706Z,52.09
2022-08-09T04:43:01.866Z,50.94
2022-08-09T04:44:05.768Z,50.19
2022-08-09T04:45:02.935Z,48.76
2022-08-09T04:46:01.822Z,48.14
2022-08-09T04:47:04.569Z,47.24
2022-08-09T04:48:03.097Z,47.46
2022-08-09T04:49:01.783Z,48.26
2022-08-09T04:50:01.792Z,49.26
2022-08-09T04:51:01.809Z,48.74
2022-08-09T04:52:01.752Z,47.69
2022-08-09T04:53:01.715Z,46.67
2022-08-09T04:54:01.714Z,45.63
2022-08-09T04:55:02.191Z,44.71
2022-08-09T04:56:01.684Z,44.59
2022-08-09T04:57:03.875Z,44.05
2022-08-09T04:58:09.196Z,43.23
2022-08-09T04:59:07.729Z,42.05
2022-08-09T05:00:02.636Z,43.19
2022-08-09T05:01:01.637Z,43.71
2022-08-09T05:02:02.755Z,44.65
2022-08-09T05:03:12.920Z,45.15
2022-08-09T05:04:02.990Z,45.25
2022-08-09T05:05:04.313Z,45.45
2022-08-09T05:06:07.016Z,46.77
2022-08-09T05:07:02.546Z,46.25
2022-08-09T05:08:01.537Z,45.35
2022-08-09T05:09:01.563Z,45.43
2022-08-09T05:10:02.149Z,44.73
2022-08-09T05:11:02.291Z,44.93
2022-08-09T05:12:01.476Z,44.85
2022-08-09T05:13:03.785Z,45.77
2022-08-09T05:14:01.455Z,46.07
2022-08-09T05:15:01.469Z,44.95
2022-08-09T05:16:01.430Z,44.95
2022-08-09T05:17:01.428Z,45.15
2022-08-09T05:18:39.244Z,44.83
2022-08-09T05:19:02.840Z,44.63
2022-08-09T05:20:01.369Z,44.65
2022-08-09T05:21:01.368Z,45.07
2022-08-09T05:22:01.365Z,44.97
2022-08-09T05:23:53.625Z,44.75
2022-08-09T05:24:04.021Z,44.33
2022-08-09T05:25:02.727Z,44.13
2022-08-09T05:26:01.309Z,44.11
2022-08-09T05:27:01.321Z,43.91
2022-08-09T05:28:01.295Z,44.01
2022-08-09T05:29:01.248Z,43.71
2022-08-09T05:30:02.243Z,43.71
2022-08-09T05:31:01.240Z,44.13
2022-08-09T05:32:02.231Z,44.53
2022-08-09T05:33:01.834Z,44.63
2022-08-09T05:34:01.181Z,44.11
2022-08-09T05:35:01.173Z,43.91
2022-08-09T05:36:01.231Z,43.81
2022-08-09T05:37:01.656Z,43.81
2022-08-09T05:38:01.155Z,43.59
2022-08-09T05:39:01.151Z,43.49
2022-08-09T05:40:01.181Z,43.29
2022-08-09T05:41:01.096Z,43.29
2022-08-09T05:42:01.773Z,43.61
2022-08-09T05:43:01.073Z,43.83
2022-08-09T05:44:01.123Z,44.53
2022-08-09T05:45:01.109Z,44.65
2022-08-09T05:46:01.065Z,44.75
2022-08-09T05:47:01.021Z,44.61
2022-08-09T05:48:01.509Z,44.19
2022-08-09T05:49:01.006Z,43.89
2022-08-09T05:50:25.632Z,43.55
2022-08-09T05:51:43.176Z,42.43
2022-08-09T05:52:01.974Z,41.91
2022-08-09T05:53:00.974Z,41.71
2022-08-09T05:54:00.989Z,42.13
2022-08-09T05:55:06.795Z,42.63
2022-08-09T05:56:01.936Z,42.01
2022-08-09T05:57:00.996Z,41.39
2022-08-09T05:58:00.908Z,41.28
2022-08-09T05:59:00.911Z,41.60
2022-08-09T06:00:00.894Z,42.11
2022-08-09T06:01:00.859Z,42.09
2022-08-09T06:02:00.856Z,41.08
2022-08-09T06:03:00.913Z,40.54
2022-08-09T06:04:00.949Z,39.73
2022-08-09T06:05:00.826Z,39.21
2022-08-09T06:06:05.790Z,38.98
2022-08-09T06:07:01.833Z,38.46
2022-08-09T06:08:05.613Z,38.05
2022-08-09T06:09:01.789Z,37.24
2022-08-09T06:10:02.275Z,37.24
2022-08-09T06:11:00.766Z,37.24
2022-08-09T06:12:00.801Z,37.02
2022-08-09T06:13:04.556Z,37.02
2022-08-09T06:14:01.698Z,36.90
2022-08-09T06:15:02.189Z,36.59
2022-08-09T06:16:00.849Z,36.90
2022-08-09T06:17:00.656Z,37.00
2022-08-09T06:18:01.686Z,37.63
2022-08-09T06:19:00.675Z,37.75
2022-08-09T06:20:00.653Z,38.03
2022-08-09T06:21:00.689Z,37.93
2022-08-09T06:22:00.696Z,37.71
2022-08-09T06:23:00.693Z,37.62
2022-08-09T06:24:01.542Z,37.73
2022-08-09T06:25:00.580Z,38.32
2022-08-09T06:26:00.558Z,38.56
2022-08-09T06:27:00.678Z,39.59
2022-08-09T06:28:00.562Z,39.37
2022-08-09T06:29:05.039Z,38.85
2022-08-09T06:30:04.393Z,38.01
2022-08-09T06:31:01.514Z,37.32
2022-08-09T06:32:32.353Z,38.64
2022-08-09T06:33:30.404Z,39.57
2022-08-09T06:34:01.466Z,40.19
2022-08-09T06:35:00.632Z,39.77
2022-08-09T06:36:00.539Z,39.15
2022-08-09T06:37:00.491Z,38.74
2022-08-09T06:38:05.634Z,38.11
2022-08-09T06:39:02.659Z,37.83
2022-08-09T06:40:16.347Z,38.66
2022-08-09T06:41:01.394Z,38.64
2022-08-09T06:42:08.759Z,37.91
2022-08-09T06:43:01.477Z,37.38
2022-08-09T06:44:00.373Z,37.36
2022-08-09T06:45:04.663Z,36.67
2022-08-09T06:46:06.771Z,36.36
2022-08-09T06:47:01.353Z,36.36
2022-08-09T06:48:01.377Z,36.12
2022-08-09T06:49:00.647Z,35.58
2022-08-09T06:50:14.704Z,34.86
2022-08-09T06:51:01.326Z,34.00
2022-08-09T06:52:00.301Z,36.08
2022-08-09T06:53:00.285Z,38.66
2022-08-09T06:54:00.870Z,41.55
2022-08-09T06:55:00.213Z,43.85
2022-08-09T06:56:01.206Z,45.71
2022-08-09T06:57:00.210Z,46.31
2022-08-09T06:58:01.771Z,46.80
2022-08-09T07:00:52.910Z,46.91
2022-08-09T07:00:54.788Z,46.70
2022-08-09T07:01:01.380Z,46.70
2022-08-09T07:02:04.335Z,46.91
2022-08-09T07:03:00.296Z,47.00
2022-08-09T07:04:04.053Z,47.08
2022-08-09T07:05:00.181Z,46.80
2022-08-09T07:06:03.920Z,46.80
2022-08-09T07:07:01.008Z,47.42
2022-08-09T07:08:01.767Z,47.22
2022-08-09T07:09:00.050Z,47.63
2022-08-09T07:10:14.307Z,48.13
2022-08-09T07:11:01.026Z,47.63
2022-08-09T07:11:59.998Z,47.63
2022-08-09T07:13:00.113Z,47.85
2022-08-09T07:14:05.643Z,47.65
2022-08-09T07:15:03.469Z,47.75
2022-08-09T07:16:42.706Z,47.95
2022-08-09T07:17:00.944Z,48.14
2022-08-09T07:18:02.435Z,48.14
2022-08-09T07:18:59.938Z,48.93
2022-08-09T07:19:59.943Z,47.80
2022-08-09T07:20:59.944Z,49.20
2022-08-09T07:21:59.929Z,48.08
2022-08-09T07:22:59.915Z,47.06
2022-08-09T07:23:59.871Z,46.66
2022-08-09T07:24:59.830Z,47.06
2022-08-09T07:26:02.217Z,47.36
2022-08-09T07:26:59.838Z,46.44
2022-08-09T07:27:59.790Z,45.44
2022-08-09T07:29:08.855Z,45.84
2022-08-09T07:30:00.813Z,46.16
2022-08-09T07:30:59.744Z,46.46
2022-08-09T07:31:59.729Z,47.45
2022-08-09T07:32:59.736Z,46.56
2022-08-09T07:33:59.891Z,45.94
2022-08-09T07:34:59.789Z,46.14
2022-08-09T07:35:59.733Z,45.74
2022-08-09T07:37:02.674Z,45.84
2022-08-09T07:37:59.752Z,45.94
2022-08-09T07:39:00.979Z,46.44
2022-08-09T07:39:59.636Z,45.64
2022-08-09T07:41:11.037Z,45.74
2022-08-09T07:42:00.581Z,46.26
2022-08-09T07:42:59.665Z,46.56
2022-08-09T07:43:59.589Z,46.24
2022-08-09T07:45:02.503Z,45.74
2022-08-09T07:46:01.802Z,45.74
2022-08-09T07:46:59.582Z,46.04
2022-08-09T07:48:01.611Z,46.14
2022-08-09T07:49:00.535Z,46.22
2022-08-09T07:50:07.685Z,47.11
2022-08-09T07:51:09.461Z,45.79
2022-08-09T07:52:05.878Z,45.08
2022-08-09T07:53:02.827Z,45.08
2022-08-09T07:54:05.507Z,46.37
2022-08-09T07:55:00.527Z,45.67
2022-08-09T07:56:03.278Z,45.36
2022-08-09T07:57:00.409Z,45.37
2022-08-09T07:57:59.404Z,44.68
2022-08-09T07:58:59.763Z,45.45
2022-08-09T08:00:03.455Z,44.66
2022-08-09T08:01:06.176Z,45.85
2022-08-09T08:02:00.408Z,45.06
2022-08-09T08:02:59.491Z,44.93
2022-08-09T08:03:59.396Z,44.74
2022-08-09T08:04:59.359Z,44.04
2022-08-09T08:05:59.317Z,44.04
2022-08-09T08:07:00.274Z,44.14
2022-08-09T08:09:00.268Z,44.34
2022-08-09T08:09:05.063Z,44.04
2022-08-09T08:10:05.753Z,43.82
2022-08-09T08:12:11.436Z,43.82
2022-08-09T08:12:28.047Z,43.32
2022-08-09T08:13:00.264Z,43.52
2022-08-09T08:13:59.497Z,43.72
2022-08-09T08:14:59.525Z,43.62
2022-08-09T08:15:59.178Z,43.42
2022-08-09T08:17:07.579Z,43.42
2022-08-09T08:18:00.151Z,43.90
2022-08-09T08:18:59.112Z,43.40
2022-08-09T08:19:59.107Z,43.38
2022-08-09T08:20:59.065Z,43.78
2022-08-09T08:21:59.169Z,43.78
2022-08-09T08:23:03.394Z,43.48
2022-08-09T08:24:01.378Z,43.56
2022-08-09T08:25:00.069Z,42.86
2022-08-09T08:26:55.032Z,42.37
2022-08-09T08:27:00.008Z,42.96
2022-08-09T08:27:59.076Z,43.26
2022-08-09T08:28:59.025Z,43.16
2022-08-09T08:29:59.024Z,42.77
2022-08-09T08:30:58.948Z,42.57
2022-08-09T08:32:04.191Z,42.77
2022-08-09T08:32:59.959Z,42.96
2022-08-09T08:33:58.910Z,42.86
2022-08-09T08:34:59.331Z,42.74
2022-08-09T08:36:03.600Z,42.94
2022-08-09T08:37:01.339Z,42.25
2022-08-09T08:38:02.100Z,42.74
2022-08-09T08:39:00.333Z,42.66
2022-08-09T08:39:58.870Z,42.77
2022-08-09T08:40:58.810Z,42.77
2022-08-09T08:41:59.076Z,42.65
2022-08-09T08:42:59.008Z,42.35
2022-08-09T08:44:02.541Z,42.03
2022-08-09T08:44:58.789Z,42.03
2022-08-09T08:46:09.908Z,42.03
2022-08-09T08:47:04.562Z,41.73
2022-08-09T08:47:59.916Z,42.43
2022-08-09T08:48:58.741Z,42.03
2022-08-09T08:49:58.750Z,42.60
2022-08-09T08:50:58.809Z,41.41
2022-08-09T08:52:00.332Z,40.72
2022-08-09T08:53:00.780Z,41.31
2022-08-09T08:54:03.665Z,41.52
2022-08-09T08:55:01.215Z,41.30
2022-08-09T08:55:58.718Z,40.52
2022-08-09T08:56:58.630Z,41.12
2022-08-09T08:57:58.605Z,41.41
2022-08-09T08:58:58.632Z,41.02
2022-08-09T08:59:59.137Z,41.12
2022-08-09T09:00:58.631Z,41.89
2022-08-09T09:01:59.524Z,40.80
2022-08-09T09:03:02.827Z,40.11
2022-08-09T09:03:59.578Z,40.31
2022-08-09T09:04:58.485Z,39.91
2022-08-09T09:06:04.888Z,39.69
2022-08-09T09:06:59.470Z,39.69
2022-08-09T09:07:58.421Z,39.29
2022-08-09T09:08:59.612Z,38.98
2022-08-09T09:10:02.417Z,39.37
2022-08-09T09:10:59.394Z,39.77
2022-08-09T09:11:58.411Z,37.68
2022-08-09T09:12:58.407Z,37.89
2022-08-09T09:13:58.674Z,39.37
2022-08-09T09:14:58.382Z,39.18
2022-08-09T09:15:58.394Z,40.07
2022-08-09T09:16:58.314Z,39.18
2022-08-09T09:17:58.377Z,39.37
2022-08-09T09:19:15.725Z,39.85
2022-08-09T09:19:59.294Z,38.47
2022-08-09T09:20:58.250Z,38.78
2022-08-09T09:21:58.315Z,39.37
2022-08-09T09:23:02.031Z,39.67
2022-08-09T09:24:04.431Z,38.17
2022-08-09T09:26:01.158Z,37.58
2022-08-09T09:26:01.986Z,38.37
2022-08-09T09:26:59.176Z,38.07
2022-08-09T09:28:06.482Z,38.15
2022-08-09T09:29:03.876Z,38.35
2022-08-09T09:30:10.535Z,36.67
2022-08-09T09:30:59.146Z,36.59
2022-08-09T09:32:03.974Z,36.98
2022-08-09T09:32:59.137Z,36.88
2022-08-09T09:33:58.136Z,37.28
2022-08-09T09:34:58.126Z,37.48
2022-08-09T09:36:01.680Z,36.88
2022-08-09T09:36:59.067Z,37.77
2022-08-09T09:37:58.050Z,37.48
2022-08-09T09:38:58.041Z,37.48
2022-08-09T09:39:59.542Z,37.77
2022-08-09T09:40:58.003Z,37.48
2022-08-09T09:41:58.017Z,37.87
2022-08-09T09:42:58.118Z,37.28
2022-08-09T09:44:12.574Z,37.68
2022-08-09T09:45:00.672Z,37.18
2022-08-09T09:46:39.505Z,37.18
2022-08-09T09:46:58.897Z,37.98
2022-08-09T09:47:58.547Z,38.57
2022-08-09T09:48:57.947Z,37.68
2022-08-09T09:50:15.698Z,37.58
2022-08-09T09:50:58.853Z,37.87
2022-08-09T09:51:57.870Z,37.87
2022-08-09T09:52:58.261Z,38.07
2022-08-09T09:54:04.005Z,37.76
2022-08-09T09:54:59.018Z,37.64
2022-08-09T09:56:04.563Z,36.75
2022-08-09T09:58:02.377Z,37.46
2022-08-09T09:58:02.865Z,36.95
2022-08-09T09:58:58.783Z,37.56
2022-08-09T09:59:57.844Z,37.48
2022-08-09T10:00:58.782Z,37.87
2022-08-09T10:01:57.752Z,37.58
2022-08-09T10:02:58.080Z,38.09
2022-08-09T10:04:00.117Z,37.99
2022-08-09T10:04:57.749Z,37.99
2022-08-09T10:06:03.508Z,37.98
2022-08-09T10:06:58.820Z,38.35
2022-08-09T10:08:01.017Z,37.48
2022-08-09T10:08:58.643Z,38.27
2022-08-09T10:09:57.598Z,38.27
2022-08-09T10:10:57.658Z,38.27
2022-08-09T10:12:04.382Z,37.87
2022-08-09T10:12:59.955Z,38.37
2022-08-09T10:13:57.560Z,37.58
2022-08-09T10:14:57.602Z,37.87
2022-08-09T10:16:54.716Z,38.76
2022-08-09T10:17:11.439Z,38.17
2022-08-09T10:17:58.501Z,38.27
2022-08-09T10:18:59.862Z,37.87
2022-08-09T10:19:57.508Z,38.37
2022-08-09T10:20:57.469Z,38.45
2022-08-09T10:21:57.435Z,38.06
2022-08-09T10:23:00.662Z,37.34
2022-08-09T10:23:57.450Z,37.07
2022-08-09T10:24:57.404Z,36.87
2022-08-09T10:26:07.297Z,36.98
2022-08-09T10:26:58.469Z,36.88
2022-08-09T10:27:58.284Z,36.49
2022-08-09T10:29:36.741Z,36.79
2022-08-09T10:30:43.864Z,36.57
2022-08-09T10:32:38.206Z,36.06
2022-08-09T10:32:58.341Z,36.25
2022-08-09T10:34:10.710Z,36.06
2022-08-09T10:34:58.309Z,36.54
2022-08-09T10:35:57.265Z,35.85
2022-08-09T10:36:57.306Z,36.14
2022-08-09T10:37:57.222Z,36.36
2022-08-09T10:39:00.027Z,36.44
2022-08-09T10:39:57.298Z,35.45
2022-08-09T10:40:57.443Z,35.35
2022-08-09T10:41:57.239Z,35.45
2022-08-09T10:42:57.197Z,35.85
2022-08-09T10:44:01.357Z,36.54
2022-08-09T10:44:57.154Z,35.53
2022-08-09T10:46:00.092Z,35.55
2022-08-09T10:47:01.184Z,35.33
2022-08-09T10:48:17.023Z,35.04
2022-08-09T10:48:58.087Z,36.14
2022-08-09T10:49:57.118Z,35.83
2022-08-09T10:50:57.180Z,35.15
2022-08-09T10:51:57.086Z,35.66
2022-08-09T10:52:57.078Z,35.37
2022-08-09T10:53:57.088Z,35.64
2022-08-09T10:54:57.006Z,35.35
2022-08-09T10:55:59.448Z,35.37
2022-08-09T10:56:57.046Z,35.55
2022-08-09T10:57:59.935Z,35.15
2022-08-09T10:58:57.029Z,35.75
2022-08-09T10:59:58.561Z,35.14
2022-08-09T11:03:03.350Z,35.05
2022-08-09T11:03:11.444Z,35.15
2022-08-09T11:03:15.623Z,35.33
2022-08-09T11:04:01.869Z,34.74
2022-08-09T11:04:58.022Z,34.64
2022-08-09T11:06:00.364Z,33.95
2022-08-09T11:07:19.443Z,33.67
2022-08-09T11:07:58.992Z,33.97
2022-08-09T11:09:08.643Z,33.85
2022-08-09T11:09:59.680Z,33.65
2022-08-09T11:11:00.959Z,33.75
2022-08-09T11:11:57.859Z,34.25
2022-08-09T11:12:56.840Z,35.33
2022-08-09T11:13:56.810Z,34.43
2022-08-09T11:14:57.348Z,34.05
2022-08-09T11:16:04.816Z,34.25
2022-08-09T11:16:57.718Z,33.65
2022-08-09T11:18:02.833Z,34.15
2022-08-09T11:18:57.743Z,34.25
2022-08-09T11:20:12.252Z,34.33
2022-08-09T11:20:57.822Z,33.74
2022-08-09T11:22:05.525Z,33.54
2022-08-09T11:22:58.419Z,33.25
2022-08-09T11:23:56.705Z,32.85
2022-08-09T11:24:56.654Z,33.54
2022-08-09T11:25:56.614Z,32.97
2022-08-09T11:26:56.601Z,33.64
2022-08-09T11:28:07.921Z,33.15
2022-08-09T11:28:57.656Z,32.45
2022-08-09T11:30:05.942Z,32.16
2022-08-09T11:30:57.809Z,32.14
2022-08-09T11:31:56.840Z,31.86
2022-08-09T11:32:56.619Z,32.35
2022-08-09T11:33:56.593Z,32.04
2022-08-09T11:34:56.736Z,32.06
2022-08-09T11:35:56.492Z,32.35
2022-08-09T11:36:56.912Z,31.76
2022-08-09T11:37:56.462Z,30.96
2022-08-09T11:38:56.622Z,31.35
2022-08-09T11:39:56.585Z,31.85
2022-08-09T11:40:56.406Z,30.47
2022-08-09T11:41:58.922Z,31.16
2022-08-09T11:42:56.544Z,31.06
2022-08-09T11:43:56.411Z,30.76
2022-08-09T11:44:57.313Z,30.57
2022-08-09T11:45:56.399Z,31.16
2022-08-09T11:46:56.445Z,30.75
2022-08-09T11:47:59.965Z,30.94
2022-08-09T11:48:57.330Z,31.04
2022-08-09T11:50:53.341Z,30.57
2022-08-09T11:52:53.768Z,31.06
2022-08-09T11:52:59.166Z,31.35
2022-08-09T11:53:16.467Z,31.45
2022-08-09T11:54:01.767Z,31.26
2022-08-09T11:54:57.353Z,32.84
2022-08-09T11:56:02.593Z,31.85
2022-08-09T11:56:57.215Z,31.06
2022-08-09T11:58:02.810Z,30.76
2022-08-09T11:58:57.217Z,30.68
2022-08-09T11:59:56.309Z,30.88
2022-08-09T12:00:56.251Z,30.78
2022-08-09T12:02:17.103Z,30.47
2022-08-09T12:02:57.799Z,30.27
2022-08-09T12:03:58.231Z,30.27
2022-08-09T12:04:59.028Z,30.07
2022-08-09T12:05:56.196Z,30.37
2022-08-09T12:06:56.224Z,30.37
2022-08-09T12:07:56.038Z,30.96
2022-08-09T12:08:56.249Z,30.27
2022-08-09T12:09:56.078Z,30.78
2022-08-09T12:10:55.978Z,30.27
2022-08-09T12:12:03.275Z,30.38
2022-08-09T12:12:57.017Z,30.37
2022-08-09T12:14:11.051Z,30.16
2022-08-09T12:15:03.815Z,29.76
2022-08-09T12:15:56.973Z,30.06
2022-08-09T12:16:56.383Z,29.97
2022-08-09T12:17:55.951Z,30.27
2022-08-09T12:18:56.079Z,30.26
2022-08-09T12:19:59.437Z,29.85
2022-08-09T12:20:55.873Z,29.75
2022-08-09T12:21:55.877Z,29.55
2022-08-09T12:22:56.325Z,29.47
2022-08-09T12:24:06.257Z,29.57
2022-08-09T12:24:56.925Z,29.47
2022-08-09T12:25:55.815Z,29.57
2022-08-09T12:29:10.642Z,29.48
2022-08-09T12:29:12.577Z,29.27
2022-08-09T12:29:13.894Z,29.68
2022-08-09T12:30:01.885Z,29.88
2022-08-09T12:30:56.740Z,30.37
2022-08-09T12:32:01.907Z,31.14
2022-08-09T12:32:56.875Z,30.55
2022-08-09T12:33:58.988Z,30.44
2022-08-09T12:34:56.740Z,30.41
2022-08-09T12:35:55.683Z,30.21
2022-08-09T12:36:58.813Z,30.13
2022-08-09T12:37:56.821Z,30.13
2022-08-09T12:38:55.630Z,30.24
2022-08-09T12:39:55.643Z,29.65
2022-08-09T12:40:55.656Z,29.55
2022-08-09T12:41:56.560Z,29.66
2022-08-09T12:42:55.623Z,29.75
2022-08-09T12:44:06.883Z,29.16
2022-08-09T12:44:56.600Z,29.35
2022-08-09T12:45:59.823Z,29.46
2022-08-09T12:46:55.543Z,29.55
2022-08-09T12:48:01.490Z,29.53
2022-08-09T12:48:55.473Z,30.11
2022-08-09T12:49:56.510Z,29.52
2022-08-09T12:50:55.602Z,29.83
2022-08-09T12:52:02.443Z,30.04
2022-08-09T12:53:09.400Z,30.73